sensor_id;sensor_type;location;lat;lon;timestamp;P1;durP1;ratioP1;P2;durP2;ratioP2
77625;SDS011;66794;43.764;10.436;2023-02-28T00:01:23;6.47;;;3.78;;
77625;SDS011;66794;43.764;10.436;2023-02-28T00:03:49;5.22;;;3.75;;
77625;SDS011;66794;43.764;10.436;2023-02-28T00:06:14;6.80;;;4.03;;
77625;SDS011;66794;43.764;10.436;2023-02-28T00:08:40;7.60;;;4.80;;
77625;SDS011;66794;43.764;10.436;2023-02-28T00:11:08;8.65;;;4.90;;
77625;SDS011;66794;43.764;10.436;2023-02-28T00:13:35;8.63;;;4.90;;
77625;SDS011;66794;43.764;10.436;2023-02-28T00:16:04;7.47;;;5.68;;
77625;SDS011;66794;43.764;10.436;2023-02-28T00:18:32;9.25;;;7.35;;
77625;SDS011;66794;43.764;10.436;2023-02-28T00:20:58;6.03;;;5.10;;
77625;SDS011;66794;43.764;10.436;2023-02-28T00:23:23;6.38;;;4.80;;
77625;SDS011;66794;43.764;10.436;2023-02-28T00:25:50;6.40;;;4.38;;
77625;SDS011;66794;43.764;10.436;2023-02-28T00:28:16;7.25;;;4.78;;
77625;SDS011;66794;43.764;10.436;2023-02-28T00:30:42;8.05;;;5.20;;
77625;SDS011;66794;43.764;10.436;2023-02-28T00:33:07;6.82;;;4.45;;
77625;SDS011;66794;43.764;10.436;2023-02-28T00:35:33;6.82;;;4.63;;
77625;SDS011;66794;43.764;10.436;2023-02-28T00:37:58;8.00;;;4.80;;
77625;SDS011;66794;43.764;10.436;2023-02-28T00:40:24;6.63;;;5.60;;
77625;SDS011;66794;43.764;10.436;2023-02-28T00:42:49;10.60;;;6.85;;
77625;SDS011;66794;43.764;10.436;2023-02-28T00:45:15;13.50;;;10.43;;
77625;SDS011;66794;43.764;10.436;2023-02-28T00:47:40;9.07;;;5.70;;
77625;SDS011;66794;43.764;10.436;2023-02-28T00:50:06;7.80;;;5.88;;
77625;SDS011;66794;43.764;10.436;2023-02-28T00:52:32;10.60;;;7.57;;
77625;SDS011;66794;43.764;10.436;2023-02-28T00:54:57;15.38;;;10.50;;
77625;SDS011;66794;43.764;10.436;2023-02-28T00:57:23;7.78;;;5.22;;
77625;SDS011;66794;43.764;10.436;2023-02-28T00:59:48;7.60;;;4.70;;
77625;SDS011;66794;43.764;10.436;2023-02-28T01:02:14;10.77;;;6.75;;
77625;SDS011;66794;43.764;10.436;2023-02-28T01:04:39;9.95;;;6.95;;
77625;SDS011;66794;43.764;10.436;2023-02-28T01:07:05;6.38;;;4.88;;
77625;SDS011;66794;43.764;10.436;2023-02-28T01:09:30;6.40;;;4.50;;
77625;SDS011;66794;43.764;10.436;2023-02-28T01:11:56;7.50;;;5.43;;
77625;SDS011;66794;43.764;10.436;2023-02-28T01:14:21;8.50;;;4.95;;
77625;SDS011;66794;43.764;10.436;2023-02-28T01:16:47;7.03;;;5.30;;
77625;SDS011;66794;43.764;10.436;2023-02-28T01:19:12;8.05;;;5.03;;
77625;SDS011;66794;43.764;10.436;2023-02-28T01:21:38;8.77;;;5.78;;
77625;SDS011;66794;43.764;10.436;2023-02-28T01:24:04;7.50;;;5.35;;
77625;SDS011;66794;43.764;10.436;2023-02-28T01:26:30;7.38;;;5.25;;
77625;SDS011;66794;43.764;10.436;2023-02-28T01:28:56;8.52;;;5.55;;
77625;SDS011;66794;43.764;10.436;2023-02-28T01:31:22;8.35;;;5.10;;
77625;SDS011;66794;43.764;10.436;2023-02-28T01:33:48;7.45;;;4.88;;
77625;SDS011;66794;43.764;10.436;2023-02-28T01:36:19;8.00;;;5.25;;
77625;SDS011;66794;43.764;10.436;2023-02-28T01:38:46;8.00;;;4.70;;
77625;SDS011;66794;43.764;10.436;2023-02-28T01:41:20;7.07;;;5.07;;
77625;SDS011;66794;43.764;10.436;2023-02-28T01:46:13;6.20;;;4.85;;
77625;SDS011;66794;43.764;10.436;2023-02-28T01:48:41;9.32;;;4.97;;
77625;SDS011;66794;43.764;10.436;2023-02-28T01:51:13;6.68;;;5.18;;
77625;SDS011;66794;43.764;10.436;2023-02-28T01:53:44;6.88;;;4.72;;
77625;SDS011;66794;43.764;10.436;2023-02-28T01:56:15;8.48;;;5.60;;
77625;SDS011;66794;43.764;10.436;2023-02-28T01:58:50;7.93;;;5.43;;
77625;SDS011;66794;43.764;10.436;2023-02-28T02:01:17;7.70;;;6.00;;
77625;SDS011;66794;43.764;10.436;2023-02-28T02:03:51;7.85;;;5.40;;
77625;SDS011;66794;43.764;10.436;2023-02-28T02:06:21;7.68;;;5.28;;
77625;SDS011;66794;43.764;10.436;2023-02-28T02:08:48;7.63;;;5.35;;
77625;SDS011;66794;43.764;10.436;2023-02-28T02:11:13;7.78;;;4.90;;
77625;SDS011;66794;43.764;10.436;2023-02-28T02:16:41;10.05;;;5.55;;
77625;SDS011;66794;43.764;10.436;2023-02-28T02:22:02;8.27;;;5.85;;
77625;SDS011;66794;43.764;10.436;2023-02-28T02:24:43;9.88;;;6.25;;
77625;SDS011;66794;43.764;10.436;2023-02-28T02:27:53;8.07;;;5.60;;
77625;SDS011;66794;43.764;10.436;2023-02-28T02:33:25;7.75;;;5.97;;
77625;SDS011;66794;43.764;10.436;2023-02-28T02:36:14;9.43;;;6.57;;
77625;SDS011;66794;43.764;10.436;2023-02-28T02:42:14;10.68;;;6.35;;
77625;SDS011;66794;43.764;10.436;2023-02-28T02:44:52;10.13;;;6.38;;
77625;SDS011;66794;43.764;10.436;2023-02-28T02:47:26;9.25;;;5.97;;
77625;SDS011;66794;43.764;10.436;2023-02-28T02:49:56;9.30;;;6.28;;
77625;SDS011;66794;43.764;10.436;2023-02-28T02:52:30;13.52;;;6.82;;
77625;SDS011;66794;43.764;10.436;2023-02-28T02:55:00;10.52;;;6.60;;
77625;SDS011;66794;43.764;10.436;2023-02-28T02:57:30;11.63;;;7.07;;
77625;SDS011;66794;43.764;10.436;2023-02-28T03:02:33;11.70;;;7.25;;
77625;SDS011;66794;43.764;10.436;2023-02-28T03:05:06;10.57;;;7.40;;
77625;SDS011;66794;43.764;10.436;2023-02-28T03:07:39;14.38;;;7.82;;
77625;SDS011;66794;43.764;10.436;2023-02-28T03:10:25;11.75;;;7.75;;
77625;SDS011;66794;43.764;10.436;2023-02-28T03:13:28;11.05;;;7.78;;
77625;SDS011;66794;43.764;10.436;2023-02-28T03:18:29;10.88;;;7.93;;
77625;SDS011;66794;43.764;10.436;2023-02-28T03:26:15;12.20;;;8.10;;
77625;SDS011;66794;43.764;10.436;2023-02-28T03:28:51;12.65;;;7.80;;
77625;SDS011;66794;43.764;10.436;2023-02-28T03:31:28;11.30;;;8.18;;
77625;SDS011;66794;43.764;10.436;2023-02-28T03:34:08;11.65;;;7.35;;
77625;SDS011;66794;43.764;10.436;2023-02-28T03:36:41;11.85;;;7.13;;
77625;SDS011;66794;43.764;10.436;2023-02-28T03:39:12;13.43;;;7.90;;
77625;SDS011;66794;43.764;10.436;2023-02-28T03:44:30;11.15;;;7.32;;
77625;SDS011;66794;43.764;10.436;2023-02-28T03:47:04;10.80;;;7.50;;
77625;SDS011;66794;43.764;10.436;2023-02-28T03:49:43;12.07;;;7.78;;
77625;SDS011;66794;43.764;10.436;2023-02-28T03:52:14;9.77;;;6.35;;
77625;SDS011;66794;43.764;10.436;2023-02-28T03:54:48;11.15;;;6.45;;
77625;SDS011;66794;43.764;10.436;2023-02-28T04:00:06;10.98;;;7.13;;
77625;SDS011;66794;43.764;10.436;2023-02-28T04:02:37;9.80;;;7.00;;
77625;SDS011;66794;43.764;10.436;2023-02-28T04:05:02;9.55;;;6.97;;
77625;SDS011;66794;43.764;10.436;2023-02-28T04:07:31;9.25;;;6.43;;
77625;SDS011;66794;43.764;10.436;2023-02-28T04:09:57;9.65;;;6.38;;
77625;SDS011;66794;43.764;10.436;2023-02-28T04:12:24;9.55;;;6.35;;
77625;SDS011;66794;43.764;10.436;2023-02-28T04:14:49;8.90;;;6.35;;
77625;SDS011;66794;43.764;10.436;2023-02-28T04:17:15;9.52;;;5.82;;
77625;SDS011;66794;43.764;10.436;2023-02-28T04:19:41;8.95;;;5.20;;
77625;SDS011;66794;43.764;10.436;2023-02-28T04:22:07;9.65;;;5.70;;
77625;SDS011;66794;43.764;10.436;2023-02-28T04:24:33;7.18;;;5.03;;
77625;SDS011;66794;43.764;10.436;2023-02-28T04:26:58;8.38;;;5.55;;
77625;SDS011;66794;43.764;10.436;2023-02-28T04:29:25;8.20;;;5.47;;
77625;SDS011;66794;43.764;10.436;2023-02-28T04:31:52;6.38;;;4.95;;
77625;SDS011;66794;43.764;10.436;2023-02-28T04:34:19;7.63;;;5.18;;
77625;SDS011;66794;43.764;10.436;2023-02-28T04:36:46;6.85;;;4.88;;
77625;SDS011;66794;43.764;10.436;2023-02-28T04:39:14;6.68;;;5.15;;
77625;SDS011;66794;43.764;10.436;2023-02-28T04:41:40;8.70;;;5.22;;
77625;SDS011;66794;43.764;10.436;2023-02-28T04:44:06;7.78;;;5.38;;
77625;SDS011;66794;43.764;10.436;2023-02-28T04:46:31;8.68;;;5.18;;
77625;SDS011;66794;43.764;10.436;2023-02-28T04:48:57;8.20;;;5.35;;
77625;SDS011;66794;43.764;10.436;2023-02-28T04:51:23;6.65;;;4.63;;
77625;SDS011;66794;43.764;10.436;2023-02-28T04:53:48;7.03;;;4.93;;
77625;SDS011;66794;43.764;10.436;2023-02-28T04:56:14;8.57;;;5.47;;
77625;SDS011;66794;43.764;10.436;2023-02-28T04:58:41;7.20;;;4.72;;
77625;SDS011;66794;43.764;10.436;2023-02-28T05:01:24;7.20;;;5.07;;
77625;SDS011;66794;43.764;10.436;2023-02-28T05:03:53;7.35;;;4.45;;
77625;SDS011;66794;43.764;10.436;2023-02-28T05:06:20;9.63;;;5.40;;
77625;SDS011;66794;43.764;10.436;2023-02-28T05:08:47;6.78;;;4.55;;
77625;SDS011;66794;43.764;10.436;2023-02-28T05:11:14;6.97;;;4.75;;
77625;SDS011;66794;43.764;10.436;2023-02-28T05:14:00;7.78;;;4.82;;
77625;SDS011;66794;43.764;10.436;2023-02-28T05:16:29;7.63;;;4.88;;
77625;SDS011;66794;43.764;10.436;2023-02-28T05:18:56;7.07;;;4.65;;
77625;SDS011;66794;43.764;10.436;2023-02-28T05:21:32;7.93;;;4.80;;
77625;SDS011;66794;43.764;10.436;2023-02-28T05:24:00;7.28;;;4.68;;
77625;SDS011;66794;43.764;10.436;2023-02-28T05:26:27;8.75;;;4.97;;
77625;SDS011;66794;43.764;10.436;2023-02-28T05:28:53;7.03;;;4.15;;
77625;SDS011;66794;43.764;10.436;2023-02-28T05:31:19;6.45;;;4.07;;
77625;SDS011;66794;43.764;10.436;2023-02-28T05:33:45;6.40;;;3.95;;
77625;SDS011;66794;43.764;10.436;2023-02-28T05:36:10;6.68;;;4.45;;
77625;SDS011;66794;43.764;10.436;2023-02-28T05:38:36;7.30;;;4.90;;
77625;SDS011;66794;43.764;10.436;2023-02-28T05:41:04;6.25;;;4.43;;
77625;SDS011;66794;43.764;10.436;2023-02-28T05:43:31;8.00;;;4.47;;
77625;SDS011;66794;43.764;10.436;2023-02-28T05:45:57;6.03;;;4.47;;
77625;SDS011;66794;43.764;10.436;2023-02-28T05:48:22;7.85;;;4.97;;
77625;SDS011;66794;43.764;10.436;2023-02-28T05:50:47;6.57;;;4.38;;
77625;SDS011;66794;43.764;10.436;2023-02-28T05:53:13;5.90;;;4.32;;
77625;SDS011;66794;43.764;10.436;2023-02-28T05:55:39;6.00;;;4.20;;
77625;SDS011;66794;43.764;10.436;2023-02-28T05:58:06;7.07;;;4.47;;
77625;SDS011;66794;43.764;10.436;2023-02-28T06:00:31;5.82;;;4.05;;
77625;SDS011;66794;43.764;10.436;2023-02-28T06:02:57;5.93;;;4.05;;
77625;SDS011;66794;43.764;10.436;2023-02-28T06:05:24;5.80;;;4.00;;
77625;SDS011;66794;43.764;10.436;2023-02-28T06:07:51;5.82;;;4.15;;
77625;SDS011;66794;43.764;10.436;2023-02-28T06:10:16;7.55;;;4.45;;
77625;SDS011;66794;43.764;10.436;2023-02-28T06:12:42;6.25;;;4.43;;
77625;SDS011;66794;43.764;10.436;2023-02-28T06:15:16;7.40;;;4.43;;
77625;SDS011;66794;43.764;10.436;2023-02-28T06:20:08;6.47;;;4.10;;
77625;SDS011;66794;43.764;10.436;2023-02-28T06:22:36;6.30;;;4.00;;
77625;SDS011;66794;43.764;10.436;2023-02-28T06:25:02;6.47;;;4.50;;
77625;SDS011;66794;43.764;10.436;2023-02-28T06:27:28;6.47;;;4.60;;
77625;SDS011;66794;43.764;10.436;2023-02-28T06:29:55;5.28;;;4.07;;
77625;SDS011;66794;43.764;10.436;2023-02-28T06:32:21;5.72;;;3.83;;
77625;SDS011;66794;43.764;10.436;2023-02-28T06:34:47;5.57;;;3.78;;
77625;SDS011;66794;43.764;10.436;2023-02-28T06:37:12;4.72;;;3.58;;
77625;SDS011;66794;43.764;10.436;2023-02-28T06:39:38;6.10;;;4.30;;
77625;SDS011;66794;43.764;10.436;2023-02-28T06:42:04;4.80;;;3.45;;
77625;SDS011;66794;43.764;10.436;2023-02-28T06:44:29;5.07;;;3.50;;
77625;SDS011;66794;43.764;10.436;2023-02-28T06:47:00;5.30;;;3.85;;
77625;SDS011;66794;43.764;10.436;2023-02-28T06:49:28;6.03;;;3.63;;
77625;SDS011;66794;43.764;10.436;2023-02-28T06:51:55;6.47;;;3.40;;
77625;SDS011;66794;43.764;10.436;2023-02-28T06:54:20;5.38;;;3.88;;
77625;SDS011;66794;43.764;10.436;2023-02-28T06:56:46;8.38;;;3.50;;
77625;SDS011;66794;43.764;10.436;2023-02-28T06:59:12;6.90;;;3.38;;
77625;SDS011;66794;43.764;10.436;2023-02-28T07:01:38;5.65;;;4.07;;
77625;SDS011;66794;43.764;10.436;2023-02-28T07:04:04;5.00;;;3.70;;
77625;SDS011;66794;43.764;10.436;2023-02-28T07:06:30;5.13;;;3.40;;
77625;SDS011;66794;43.764;10.436;2023-02-28T07:08:56;6.35;;;3.58;;
77625;SDS011;66794;43.764;10.436;2023-02-28T07:11:22;5.20;;;3.38;;
77625;SDS011;66794;43.764;10.436;2023-02-28T07:13:53;4.88;;;3.42;;
77625;SDS011;66794;43.764;10.436;2023-02-28T07:16:20;5.20;;;3.30;;
77625;SDS011;66794;43.764;10.436;2023-02-28T07:18:45;4.93;;;3.10;;
77625;SDS011;66794;43.764;10.436;2023-02-28T07:21:11;3.58;;;3.05;;
77625;SDS011;66794;43.764;10.436;2023-02-28T07:23:37;4.13;;;2.85;;
77625;SDS011;66794;43.764;10.436;2023-02-28T07:26:04;5.68;;;3.20;;
77625;SDS011;66794;43.764;10.436;2023-02-28T07:28:31;5.43;;;2.97;;
77625;SDS011;66794;43.764;10.436;2023-02-28T07:30:56;4.55;;;3.03;;
77625;SDS011;66794;43.764;10.436;2023-02-28T07:33:22;4.95;;;2.80;;
77625;SDS011;66794;43.764;10.436;2023-02-28T07:35:48;5.28;;;3.15;;
77625;SDS011;66794;43.764;10.436;2023-02-28T07:38:14;7.32;;;4.55;;
77625;SDS011;66794;43.764;10.436;2023-02-28T07:40:40;6.35;;;2.67;;
77625;SDS011;66794;43.764;10.436;2023-02-28T07:43:05;4.60;;;2.70;;
77625;SDS011;66794;43.764;10.436;2023-02-28T07:45:31;6.35;;;3.00;;
77625;SDS011;66794;43.764;10.436;2023-02-28T07:47:59;5.53;;;2.85;;
77625;SDS011;66794;43.764;10.436;2023-02-28T07:50:25;3.45;;;2.90;;
77625;SDS011;66794;43.764;10.436;2023-02-28T07:52:54;5.13;;;2.45;;
77625;SDS011;66794;43.764;10.436;2023-02-28T07:55:19;4.10;;;2.50;;
77625;SDS011;66794;43.764;10.436;2023-02-28T07:57:45;5.05;;;2.97;;
77625;SDS011;66794;43.764;10.436;2023-02-28T08:00:10;4.90;;;2.90;;
77625;SDS011;66794;43.764;10.436;2023-02-28T08:02:37;3.95;;;2.67;;
77625;SDS011;66794;43.764;10.436;2023-02-28T08:05:03;3.15;;;2.50;;
77625;SDS011;66794;43.764;10.436;2023-02-28T08:07:30;3.85;;;2.60;;
77625;SDS011;66794;43.764;10.436;2023-02-28T08:09:57;3.42;;;2.67;;
77625;SDS011;66794;43.764;10.436;2023-02-28T08:12:23;3.10;;;2.40;;
77625;SDS011;66794;43.764;10.436;2023-02-28T08:14:48;3.70;;;2.50;;
77625;SDS011;66794;43.764;10.436;2023-02-28T08:17:16;4.90;;;2.63;;
77625;SDS011;66794;43.764;10.436;2023-02-28T08:19:41;3.05;;;2.58;;
77625;SDS011;66794;43.764;10.436;2023-02-28T08:22:09;3.70;;;2.30;;
77625;SDS011;66794;43.764;10.436;2023-02-28T08:24:34;3.65;;;2.20;;
77625;SDS011;66794;43.764;10.436;2023-02-28T08:27:01;4.03;;;2.40;;
77625;SDS011;66794;43.764;10.436;2023-02-28T08:29:26;5.78;;;2.38;;
77625;SDS011;66794;43.764;10.436;2023-02-28T08:31:52;3.72;;;1.98;;
77625;SDS011;66794;43.764;10.436;2023-02-28T08:34:17;3.78;;;2.65;;
77625;SDS011;66794;43.764;10.436;2023-02-28T08:36:43;3.50;;;2.30;;
77625;SDS011;66794;43.764;10.436;2023-02-28T08:39:12;3.85;;;2.28;;
77625;SDS011;66794;43.764;10.436;2023-02-28T08:41:38;3.28;;;2.40;;
77625;SDS011;66794;43.764;10.436;2023-02-28T08:44:03;3.70;;;2.00;;
77625;SDS011;66794;43.764;10.436;2023-02-28T08:46:29;3.35;;;2.40;;
77625;SDS011;66794;43.764;10.436;2023-02-28T08:48:55;2.10;;;1.85;;
77625;SDS011;66794;43.764;10.436;2023-02-28T08:51:24;2.78;;;1.88;;
77625;SDS011;66794;43.764;10.436;2023-02-28T08:53:53;2.80;;;2.00;;
77625;SDS011;66794;43.764;10.436;2023-02-28T08:56:19;2.28;;;2.08;;
77625;SDS011;66794;43.764;10.436;2023-02-28T08:58:47;2.88;;;1.90;;
77625;SDS011;66794;43.764;10.436;2023-02-28T09:01:20;2.40;;;1.80;;
77625;SDS011;66794;43.764;10.436;2023-02-28T09:03:48;3.33;;;2.05;;
77625;SDS011;66794;43.764;10.436;2023-02-28T09:06:15;2.58;;;2.00;;
77625;SDS011;66794;43.764;10.436;2023-02-28T09:08:41;2.97;;;2.38;;
77625;SDS011;66794;43.764;10.436;2023-02-28T09:11:07;2.50;;;1.90;;
77625;SDS011;66794;43.764;10.436;2023-02-28T09:13:33;2.90;;;2.10;;
77625;SDS011;66794;43.764;10.436;2023-02-28T09:15:59;2.70;;;1.98;;
77625;SDS011;66794;43.764;10.436;2023-02-28T09:18:26;2.10;;;1.80;;
77625;SDS011;66794;43.764;10.436;2023-02-28T09:20:52;2.55;;;2.05;;
77625;SDS011;66794;43.764;10.436;2023-02-28T09:23:18;3.40;;;2.20;;
77625;SDS011;66794;43.764;10.436;2023-02-28T09:25:51;3.65;;;2.28;;
77625;SDS011;66794;43.764;10.436;2023-02-28T09:28:18;2.55;;;2.05;;
77625;SDS011;66794;43.764;10.436;2023-02-28T09:30:45;3.75;;;2.30;;
77625;SDS011;66794;43.764;10.436;2023-02-28T09:33:13;3.33;;;2.10;;
77625;SDS011;66794;43.764;10.436;2023-02-28T09:35:39;2.65;;;2.08;;
77625;SDS011;66794;43.764;10.436;2023-02-28T09:38:05;3.03;;;2.40;;
77625;SDS011;66794;43.764;10.436;2023-02-28T09:40:35;5.28;;;2.22;;
77625;SDS011;66794;43.764;10.436;2023-02-28T09:43:10;4.28;;;2.30;;
77625;SDS011;66794;43.764;10.436;2023-02-28T09:45:40;2.80;;;2.05;;
77625;SDS011;66794;43.764;10.436;2023-02-28T09:48:23;2.35;;;1.90;;
77625;SDS011;66794;43.764;10.436;2023-02-28T09:50:59;2.45;;;2.03;;
77625;SDS011;66794;43.764;10.436;2023-02-28T09:53:29;3.00;;;2.35;;
77625;SDS011;66794;43.764;10.436;2023-02-28T09:58:41;2.50;;;2.15;;
77625;SDS011;66794;43.764;10.436;2023-02-28T10:03:55;2.92;;;2.30;;
77625;SDS011;66794;43.764;10.436;2023-02-28T10:06:36;2.50;;;1.90;;
77625;SDS011;66794;43.764;10.436;2023-02-28T10:09:17;3.88;;;2.22;;
77625;SDS011;66794;43.764;10.436;2023-02-28T10:11:48;2.22;;;1.70;;
77625;SDS011;66794;43.764;10.436;2023-02-28T10:14:24;5.53;;;2.10;;
77625;SDS011;66794;43.764;10.436;2023-02-28T10:17:01;2.53;;;2.00;;
77625;SDS011;66794;43.764;10.436;2023-02-28T10:24:46;3.03;;;2.20;;
77625;SDS011;66794;43.764;10.436;2023-02-28T10:29:49;4.88;;;2.40;;
77625;SDS011;66794;43.764;10.436;2023-02-28T10:32:18;3.08;;;1.98;;
77625;SDS011;66794;43.764;10.436;2023-02-28T10:34:50;2.63;;;2.10;;
77625;SDS011;66794;43.764;10.436;2023-02-28T10:37:20;2.72;;;2.15;;
77625;SDS011;66794;43.764;10.436;2023-02-28T10:39:46;2.35;;;2.05;;
77625;SDS011;66794;43.764;10.436;2023-02-28T10:42:25;3.65;;;1.95;;
77625;SDS011;66794;43.764;10.436;2023-02-28T10:47:53;7.05;;;2.03;;
77625;SDS011;66794;43.764;10.436;2023-02-28T10:50:39;2.50;;;2.05;;
77625;SDS011;66794;43.764;10.436;2023-02-28T10:53:14;3.15;;;2.20;;
77625;SDS011;66794;43.764;10.436;2023-02-28T10:56:05;2.92;;;2.33;;
77625;SDS011;66794;43.764;10.436;2023-02-28T10:58:42;3.75;;;2.53;;
77625;SDS011;66794;43.764;10.436;2023-02-28T11:01:52;2.80;;;2.40;;
77625;SDS011;66794;43.764;10.436;2023-02-28T11:04:16;2.53;;;2.03;;
77625;SDS011;66794;43.764;10.436;2023-02-28T11:06:42;2.40;;;2.20;;
77625;SDS011;66794;43.764;10.436;2023-02-28T11:12:31;4.15;;;2.50;;
77625;SDS011;66794;43.764;10.436;2023-02-28T11:15:45;2.90;;;2.50;;
77625;SDS011;66794;43.764;10.436;2023-02-28T11:21:02;3.30;;;2.70;;
77625;SDS011;66794;43.764;10.436;2023-02-28T11:23:29;5.43;;;2.88;;
77625;SDS011;66794;43.764;10.436;2023-02-28T11:25:58;3.03;;;2.45;;
77625;SDS011;66794;43.764;10.436;2023-02-28T11:28:30;3.67;;;2.88;;
77625;SDS011;66794;43.764;10.436;2023-02-28T11:36:07;3.65;;;2.70;;
77625;SDS011;66794;43.764;10.436;2023-02-28T11:38:39;3.55;;;2.75;;
77625;SDS011;66794;43.764;10.436;2023-02-28T11:41:08;3.13;;;2.80;;
77625;SDS011;66794;43.764;10.436;2023-02-28T11:46:54;3.58;;;3.00;;
77625;SDS011;66794;43.764;10.436;2023-02-28T12:00:58;3.10;;;2.75;;
77625;SDS011;66794;43.764;10.436;2023-02-28T12:06:36;4.13;;;3.35;;
77625;SDS011;66794;43.764;10.436;2023-02-28T12:11:30;4.25;;;3.30;;
77625;SDS011;66794;43.764;10.436;2023-02-28T12:19:45;4.70;;;3.08;;
77625;SDS011;66794;43.764;10.436;2023-02-28T12:25:20;3.90;;;3.28;;
77625;SDS011;66794;43.764;10.436;2023-02-28T12:28:02;4.95;;;3.53;;
77625;SDS011;66794;43.764;10.436;2023-02-28T12:30:30;4.88;;;3.85;;
77625;SDS011;66794;43.764;10.436;2023-02-28T12:33:09;4.68;;;3.70;;
77625;SDS011;66794;43.764;10.436;2023-02-28T12:35:41;5.32;;;3.70;;
77625;SDS011;66794;43.764;10.436;2023-02-28T12:41:05;4.43;;;3.70;;
77625;SDS011;66794;43.764;10.436;2023-02-28T12:43:44;5.43;;;3.90;;
77625;SDS011;66794;43.764;10.436;2023-02-28T12:46:18;4.43;;;3.67;;
77625;SDS011;66794;43.764;10.436;2023-02-28T12:48:50;5.68;;;3.35;;
77625;SDS011;66794;43.764;10.436;2023-02-28T12:51:21;4.28;;;3.63;;
77625;SDS011;66794;43.764;10.436;2023-02-28T12:56:33;4.05;;;3.65;;
77625;SDS011;66794;43.764;10.436;2023-02-28T13:10:33;5.50;;;3.78;;
77625;SDS011;66794;43.764;10.436;2023-02-28T13:13:04;4.65;;;3.88;;
77625;SDS011;66794;43.764;10.436;2023-02-28T13:15:29;6.38;;;4.15;;
77625;SDS011;66794;43.764;10.436;2023-02-28T13:17:56;5.47;;;4.07;;
77625;SDS011;66794;43.764;10.436;2023-02-28T13:20:28;5.25;;;4.30;;
77625;SDS011;66794;43.764;10.436;2023-02-28T13:22:59;5.32;;;3.92;;
77625;SDS011;66794;43.764;10.436;2023-02-28T13:28:12;4.43;;;4.03;;
77625;SDS011;66794;43.764;10.436;2023-02-28T13:31:05;14.68;;;5.13;;
77625;SDS011;66794;43.764;10.436;2023-02-28T13:33:31;7.80;;;4.03;;
77625;SDS011;66794;43.764;10.436;2023-02-28T14:05:00;7.20;;;5.05;;
77625;SDS011;66794;43.764;10.436;2023-02-28T14:07:28;6.38;;;4.72;;
77625;SDS011;66794;43.764;10.436;2023-02-28T14:09:59;6.43;;;5.10;;
77625;SDS011;66794;43.764;10.436;2023-02-28T14:20:47;9.57;;;5.55;;
77625;SDS011;66794;43.764;10.436;2023-02-28T14:25:41;7.43;;;5.53;;
77625;SDS011;66794;43.764;10.436;2023-02-28T14:38:56;6.85;;;5.57;;
77625;SDS011;66794;43.764;10.436;2023-02-28T14:41:32;10.55;;;5.75;;
77625;SDS011;66794;43.764;10.436;2023-02-28T14:44:01;7.28;;;6.15;;
77625;SDS011;66794;43.764;10.436;2023-02-28T14:46:37;7.68;;;5.50;;
77625;SDS011;66794;43.764;10.436;2023-02-28T14:49:05;7.07;;;5.85;;
77625;SDS011;66794;43.764;10.436;2023-02-28T14:51:34;9.63;;;6.10;;
77625;SDS011;66794;43.764;10.436;2023-02-28T14:54:00;8.27;;;6.22;;
77625;SDS011;66794;43.764;10.436;2023-02-28T14:56:33;8.90;;;6.22;;
